Time;durP1;ratioP1;P1;durP2;ratioP2;P2;SDS_P1;SDS_P2;PMS_P1;PMS_P2;Temp;Humidity;BMP_temperature;BMP_pressure;BME280_temperature;BME280_humidity;BME280_pressure;Samples;Min_cycle;Max_cycle;Signal;HPM_P1;HPM_P2
2021/06/01 00:02:23;;;;;;;1.08;0.80;;;;;;;10.53;100.00;100103.94;4806628;29;20050;-52
2021/06/01 00:05:26;;;;;;;3.03;1.13;;;;;;;10.48;100.00;100107.34;4806185;29;20055;-53
2021/06/01 00:08:30;;;;;;;7.60;1.45;;;;;;;10.40;100.00;100106.13;4806487;29;20057;-52
2021/06/01 00:11:34;;;;;;;3.58;1.50;;;;;;;10.36;100.00;100102.75;4806310;29;20057;-52
2021/06/01 00:14:37;;;;;;;5.78;0.95;;;;;;;10.35;100.00;100103.97;4806233;29;20054;-53
2021/06/01 00:17:40;;;;;;;3.85;1.65;;;;;;;10.28;100.00;100104.31;4806289;29;20097;-53
2021/06/01 00:20:44;;;;;;;1.13;1.02;;;;;;;10.20;100.00;100102.31;4805997;29;20046;-51
2021/06/01 00:23:48;;;;;;;7.22;1.50;;;;;;;10.14;100.00;100096.59;4806226;29;20050;-52
2021/06/01 00:26:51;;;;;;;2.38;1.30;;;;;;;10.10;100.00;100097.97;4772939;29;20062;-53
2021/06/01 00:30:01;;;;;;;2.42;0.82;;;;;;;10.04;100.00;100100.63;4769927;30;20066;-53
2021/06/01 00:33:09;;;;;;;2.58;1.33;;;;;;;10.04;100.00;100095.06;4769347;30;20063;-53
2021/06/01 00:36:12;;;;;;;6.60;2.38;;;;;;;9.99;100.00;100098.44;4759264;30;20506;-53
2021/06/01 00:39:15;;;;;;;3.45;1.55;;;;;;;9.94;100.00;100096.28;4790476;29;20058;-52
2021/06/01 00:42:19;;;;;;;4.90;2.03;;;;;;;9.90;100.00;100101.22;4805818;29;20110;-52
2021/06/01 00:45:25;;;;;;;2.47;1.15;;;;;;;9.85;100.00;100099.09;4805638;29;20050;-52
2021/06/01 00:48:29;;;;;;;6.38;1.48;;;;;;;9.78;100.00;100083.50;4805758;29;20543;-52
2021/06/01 00:51:33;;;;;;;3.00;1.75;;;;;;;9.68;100.00;100086.75;4805281;29;20413;-53
2021/06/01 00:54:36;;;;;;;3.55;1.83;;;;;;;9.59;100.00;100081.97;4806045;29;20049;-52
2021/06/01 00:57:40;;;;;;;6.00;1.65;;;;;;;9.49;100.00;100085.16;4805072;29;20066;-52
2021/06/01 01:01:29;;;;;;;5.97;2.40;;;;;;;9.41;100.00;100078.38;4794220;29;20062;-51
2021/06/01 01:04:08;;;;;;;3.63;1.13;;;;;;;9.33;100.00;100077.13;4810527;29;20061;-52
2021/06/01 01:07:20;;;;;;;2.95;1.63;;;;;;;9.28;100.00;100072.97;4804280;29;20105;-52
2021/06/01 01:10:27;;;;;;;9.63;1.85;;;;;;;9.23;100.00;100070.78;4794336;29;20115;-51
2021/06/01 01:13:38;;;;;;;1.30;1.10;;;;;;;9.26;100.00;100080.22;4805245;29;20074;-52
2021/06/01 01:16:49;;;;;;;2.33;1.15;;;;;;;9.18;100.00;100074.94;4805368;29;20081;-51
2021/06/01 01:24:45;;;;;;;5.75;2.17;;;;;;;9.04;100.00;100074.78;4806657;29;20063;-52
2021/06/01 01:28:27;;;;;;;4.13;1.83;;;;;;;8.99;100.00;100078.16;4805247;29;20054;-51
2021/06/01 01:31:51;;;;;;;4.22;1.58;;;;;;;8.94;100.00;100076.00;4805148;29;20401;-52
2021/06/01 01:34:58;;;;;;;2.10;1.75;;;;;;;8.90;100.00;100081.66;4793180;29;20058;-52
2021/06/01 01:38:02;;;;;;;2.50;1.65;;;;;;;8.90;100.00;100081.66;4788220;29;20055;-51
2021/06/01 01:41:13;;;;;;;3.22;1.15;;;;;;;8.87;100.00;100077.06;4805417;29;20073;-51
2021/06/01 01:44:18;;;;;;;6.00;1.83;;;;;;;8.85;100.00;100085.06;4804978;29;20074;-52
2021/06/01 01:50:38;;;;;;;5.90;2.00;;;;;;;8.73;100.00;100083.16;4812612;29;20538;-51
2021/06/01 01:53:48;;;;;;;3.42;2.22;;;;;;;8.73;100.00;100093.50;4823799;29;20062;-51
2021/06/01 01:56:54;;;;;;;6.93;1.85;;;;;;;8.70;100.00;100084.09;4822724;29;20057;-51
2021/06/01 01:59:58;;;;;;;4.22;1.38;;;;;;;8.64;100.00;100085.91;4823231;29;20046;-51
2021/06/01 02:03:03;;;;;;;1.42;1.30;;;;;;;8.60;100.00;100085.25;4823056;29;20046;-51
2021/06/01 02:06:08;;;;;;;6.72;1.60;;;;;;;8.56;100.00;100084.63;4822582;29;20049;-51
2021/06/01 02:09:12;;;;;;;4.85;1.35;;;;;;;8.53;100.00;100074.47;4825109;29;20053;-51
2021/06/01 02:12:15;;;;;;;3.70;1.70;;;;;;;8.52;100.00;100072.13;4826704;29;20065;-51
2021/06/01 02:15:19;;;;;;;5.30;1.38;;;;;;;8.51;100.00;100074.13;4814978;29;20053;-51
2021/06/01 02:18:24;;;;;;;3.97;2.20;;;;;;;8.51;100.00;100079.66;4826526;29;20065;-51
2021/06/01 02:24:58;;;;;;;3.80;1.50;;;;;;;8.48;100.00;100072.28;4830642;29;20045;-51
2021/06/01 02:28:13;;;;;;;1.00;0.90;;;;;;;8.47;100.00;100059.63;4826205;29;20057;-50
2021/06/01 02:31:20;;;;;;;5.13;1.95;;;;;;;8.49;100.00;100064.72;4826160;29;20132;-51
2021/06/01 02:34:25;;;;;;;1.45;1.13;;;;;;;8.47;100.00;100058.88;4814807;29;20407;-51
2021/06/01 02:37:30;;;;;;;6.93;2.47;;;;;;;8.44;100.00;100060.53;4826438;29;20053;-50
2021/06/01 02:40:36;;;;;;;9.40;2.67;;;;;;;8.43;100.00;100058.97;4825984;29;20065;-51
2021/06/01 02:43:40;;;;;;;5.50;3.08;;;;;;;8.44;100.00;100055.00;4825912;29;20236;-51
2021/06/01 02:46:46;;;;;;;6.70;2.47;;;;;;;8.44;100.00;100043.13;4825804;29;20046;-50
2021/06/01 02:49:50;;;;;;;2.58;1.75;;;;;;;8.43;100.00;100047.88;4825740;29;20069;-51
2021/06/01 02:52:56;;;;;;;3.83;1.98;;;;;;;8.41;100.00;100050.34;4825798;29;20053;-51
2021/06/01 02:55:59;;;;;;;4.55;1.85;;;;;;;8.39;100.00;100050.03;4815137;29;20607;-51
2021/06/01 02:59:06;;;;;;;7.82;2.13;;;;;;;8.34;100.00;100045.84;4814615;29;20425;-51
2021/06/01 03:02:09;;;;;;;2.38;1.42;;;;;;;8.32;100.00;100041.97;4825467;29;20073;-51
2021/06/01 03:05:13;;;;;;;4.93;1.35;;;;;;;8.30;100.00;100036.88;4825444;29;20402;-51
2021/06/01 03:08:27;;;;;;;4.35;1.73;;;;;;;8.31;100.00;100021.03;4825629;29;20057;-51
2021/06/01 03:11:32;;;;;;;5.55;1.45;;;;;;;8.33;100.00;100037.97;4810988;29;20053;-51
2021/06/01 03:14:36;;;;;;;8.63;2.60;;;;;;;8.28;100.00;100031.03;4825058;29;20069;-51
2021/06/01 03:17:40;;;;;;;5.68;2.33;;;;;;;8.24;100.00;100029.59;4825619;29;20057;-51
2021/06/01 03:20:44;;;;;;;11.13;2.15;;;;;;;8.20;100.00;100024.19;4824523;29;20074;-51
2021/06/01 03:23:47;;;;;;;2.20;1.52;;;;;;;8.17;100.00;100024.28;4814079;29;20500;-50
2021/06/01 03:26:51;;;;;;;8.77;1.33;;;;;;;8.15;100.00;100023.97;4825260;29;20057;-50
2021/06/01 03:29:54;;;;;;;4.22;1.90;;;;;;;8.16;100.00;100031.09;4825164;29;20069;-50
2021/06/01 03:32:58;;;;;;;3.85;1.45;;;;;;;8.10;100.00;100024.59;4824878;29;20061;-51
2021/06/01 03:36:07;;;;;;;3.28;1.67;;;;;;;8.09;100.00;100017.50;4825272;29;20061;-51
2021/06/01 03:39:12;;;;;;;3.90;1.80;;;;;;;8.08;100.00;100021.47;4814177;29;20503;-51
2021/06/01 03:42:16;;;;;;;6.60;1.83;;;;;;;8.04;100.00;100020.84;4813736;29;20045;-51
2021/06/01 03:45:21;;;;;;;12.13;1.67;;;;;;;7.99;100.00;100018.69;4825153;29;20053;-51
2021/06/01 03:48:25;;;;;;;3.75;1.52;;;;;;;7.95;100.00;100013.25;4824750;29;20069;-51
2021/06/01 03:51:28;;;;;;;2.85;1.75;;;;;;;7.96;100.00;100014.81;4824802;29;20058;-51
2021/06/01 03:54:32;;;;;;;2.58;1.48;;;;;;;7.95;100.00;100007.69;4824665;29;20058;-51
2021/06/01 03:57:35;;;;;;;5.07;2.13;;;;;;;7.91;100.00;100011.84;4824925;29;20049;-51
2021/06/01 04:00:40;;;;;;;4.25;1.10;;;;;;;7.89;100.00;100006.75;4824719;29;20412;-51
2021/06/01 04:03:44;;;;;;;3.28;1.00;;;;;;;7.83;100.00;100000.25;4824577;29;20536;-51
2021/06/01 04:06:48;;;;;;;1.95;1.33;;;;;;;7.83;100.00;100000.25;4824766;29;20057;-51
2021/06/01 04:09:52;;;;;;;3.97;1.52;;;;;;;7.80;100.00;100003.13;4824462;29;20507;-51
2021/06/01 04:12:55;;;;;;;2.80;1.70;;;;;;;7.75;100.00;99998.97;4824366;29;20054;-51
2021/06/01 04:15:58;;;;;;;6.93;2.88;;;;;;;7.73;100.00;100003.41;4823700;29;20407;-51
2021/06/01 04:19:03;;;;;;;6.47;1.83;;;;;;;7.70;100.00;100001.53;4824322;29;20125;-51
2021/06/01 04:22:07;;;;;;;11.00;2.47;;;;;;;7.70;100.00;100001.53;4813215;29;20527;-51
2021/06/01 04:25:10;;;;;;;5.13;1.20;;;;;;;7.75;100.00;99995.41;4813240;29;20412;-50
2021/06/01 04:28:14;;;;;;;5.80;1.52;;;;;;;7.78;100.00;100003.59;4813190;29;20057;-50
2021/06/01 04:31:17;;;;;;;2.90;1.75;;;;;;;7.85;100.00;100002.56;4823388;29;20053;-51
2021/06/01 04:34:21;;;;;;;1.90;1.75;;;;;;;7.89;100.00;100000.41;4823820;29;20503;-50
2021/06/01 04:37:25;;;;;;;4.03;1.75;;;;;;;7.92;100.00;100007.84;4823494;29;20069;-51
2021/06/01 04:40:29;;;;;;;2.63;1.65;;;;;;;7.98;100.00;100006.03;4813095;29;20053;-51
2021/06/01 04:43:33;;;;;;;2.58;1.33;;;;;;;7.99;100.00;100002.03;4824283;29;20049;-51
2021/06/01 04:46:36;;;;;;;6.85;1.88;;;;;;;8.02;100.00;100006.66;4824425;29;20050;-51
2021/06/01 04:49:41;;;;;;;5.53;1.98;;;;;;;8.06;100.00;100005.28;4823894;29;20053;-50
2021/06/01 04:52:46;;;;;;;2.38;1.58;;;;;;;8.08;100.00;100002.06;4824035;29;20049;-51
2021/06/01 04:55:52;;;;;;;3.72;1.50;;;;;;;8.11;100.00;99993.63;4812869;29;20057;-51
2021/06/01 04:58:56;;;;;;;6.88;2.13;;;;;;;8.13;100.00;99985.63;4824188;29;20049;-51
2021/06/01 05:02:03;;;;;;;5.40;2.17;;;;;;;8.17;100.00;99985.47;4823955;29;20062;-51
2021/06/01 05:05:08;;;;;;;5.40;2.17;;;;;;;8.19;100.00;99977.47;4812903;29;20057;-51
2021/06/01 05:08:23;;;;;;;8.95;2.08;;;;;;;8.22;100.00;99982.09;4823847;29;20049;-51
2021/06/01 05:11:31;;;;;;;8.00;1.25;;;;;;;8.26;100.00;99980.00;4812763;29;20065;-51
2021/06/01 05:14:35;;;;;;;1.58;1.20;;;;;;;8.32;100.00;99981.72;4823617;29;20045;-52
2021/06/01 05:17:40;;;;;;;4.35;2.03;;;;;;;8.39;100.00;99986.19;4812550;29;20057;-51
2021/06/01 05:20:43;;;;;;;4.68;1.77;;;;;;;8.47;100.00;99984.69;4823727;29;20061;-52
2021/06/01 05:23:46;;;;;;;2.33;1.48;;;;;;;8.55;100.00;99988.72;4823730;29;20046;-50
2021/06/01 05:26:50;;;;;;;3.33;1.40;;;;;;;8.65;100.00;99986.72;4823565;29;20057;-52
2021/06/01 05:29:59;;;;;;;4.43;2.00;;;;;;;8.75;100.00;99982.78;4823620;29;20497;-51
2021/06/01 05:33:15;;;;;;;2.75;1.00;;;;;;;8.87;100.00;99977.06;4812180;29;20061;-51
2021/06/01 05:36:19;;;;;;;7.45;1.40;;;;;;;9.00;100.00;99982.47;4823777;29;20404;-52
2021/06/01 05:39:25;;;;;;;3.53;1.98;;;;;;;9.12;100.00;99976.00;4823122;29;20057;-51
2021/06/01 05:42:28;;;;;;;3.63;1.02;;;;;;;9.23;100.00;99976.31;4812343;29;20057;-51
2021/06/01 05:45:32;;;;;;;4.75;2.03;;;;;;;9.34;100.00;99975.84;4827052;29;20061;-52
2021/06/01 05:48:38;;;;;;;3.20;1.55;;;;;;;9.46;100.00;99975.69;4816146;29;20067;-52
2021/06/01 05:51:43;;;;;;;1.77;1.52;;;;;;;9.61;100.00;99967.47;4815596;29;20062;-52
2021/06/01 05:54:47;;;;;;;3.45;1.55;;;;;;;9.77;100.00;99969.91;4827210;29;20400;-51
2021/06/01 05:57:50;;;;;;;5.22;0.95;;;;;;;9.92;100.00;99971.56;4826707;29;20057;-52
2021/06/01 06:00:54;;;;;;;4.93;1.90;;;;;;;10.08;100.00;99962.09;4826851;29;20070;-53
2021/06/01 06:03:57;;;;;;;6.00;2.05;;;;;;;10.25;100.00;99960.50;4826872;29;20049;-52
2021/06/01 06:07:01;;;;;;;3.45;1.75;;;;;;;10.43;100.00;99965.22;4826880;29;20054;-51
2021/06/01 06:10:09;;;;;;;2.83;0.95;;;;;;;10.57;100.00;99959.72;4826733;29;20053;-52
2021/06/01 06:13:14;;;;;;;4.57;1.05;;;;;;;10.71;100.00;99960.25;4804995;29;20519;-52
2021/06/01 06:16:20;;;;;;;4.32;0.90;;;;;;;10.88;100.00;99956.59;4826423;29;20053;-53
2021/06/01 06:19:23;;;;;;;4.35;1.70;;;;;;;11.02;100.00;99960.69;4826577;29;20136;-52
2021/06/01 06:22:27;;;;;;;3.35;1.08;;;;;;;11.18;100.00;99958.22;4826229;29;20053;-52
2021/06/01 06:25:30;;;;;;;3.90;1.70;;;;;;;11.31;100.00;99961.50;4826632;29;20057;-52
2021/06/01 06:28:34;;;;;;;10.15;1.40;;;;;;;11.46;100.00;99958.75;4825626;29;20069;-53
2021/06/01 06:31:38;;;;;;;4.63;1.80;;;;;;;11.65;100.00;99956.56;4825538;29;20042;-53
2021/06/01 06:34:43;;;;;;;10.18;1.50;;;;;;;11.75;100.00;99969.97;4826053;29;20066;-53
2021/06/01 06:37:47;;;;;;;3.78;0.73;;;;;;;11.90;100.00;99959.56;4806188;29;20039;-52
2021/06/01 06:41:04;;;;;;;5.03;2.08;;;;;;;12.02;100.00;99952.13;4794357;29;20050;-52
2021/06/01 06:44:15;;;;;;;4.45;1.75;;;;;;;12.17;100.00;99953.66;4807962;29;20050;-52
2021/06/01 06:47:56;;;;;;;2.88;1.02;;;;;;;12.28;100.00;99957.88;4796976;29;20177;-52
2021/06/01 06:51:12;;;;;;;5.20;1.48;;;;;;;12.40;100.00;99954.00;4806782;29;20424;-53
2021/06/01 06:54:18;;;;;;;10.40;1.45;;;;;;;12.48;100.00;99955.91;4806933;29;20699;-53
2021/06/01 06:57:21;;;;;;;2.35;1.20;;;;;;;12.57;100.00;99946.63;4796622;29;20054;-53
2021/06/01 07:00:25;;;;;;;4.75;1.15;;;;;;;12.72;100.00;99952.91;4808057;29;20066;-53
2021/06/01 07:03:29;;;;;;;3.65;1.00;;;;;;;12.89;100.00;99953.91;4808031;29;20074;-53
2021/06/01 07:06:32;;;;;;;6.70;1.98;;;;;;;12.90;100.00;99950.63;4807461;29;20400;-53
2021/06/01 07:09:38;;;;;;;6.63;2.33;;;;;;;12.96;100.00;99939.50;4807018;29;20057;-53
2021/06/01 07:12:43;;;;;;;2.25;0.88;;;;;;;13.11;100.00;99943.03;4807370;29;20054;-52
2021/06/01 07:15:52;;;;;;;3.17;0.65;;;;;;;13.24;100.00;99949.03;4807221;29;20046;-53
2021/06/01 07:18:55;;;;;;;4.15;1.23;;;;;;;13.36;100.00;99942.28;4807413;29;20062;-53
2021/06/01 07:21:59;;;;;;;5.40;1.60;;;;;;;13.45;100.00;99938.56;4796289;29;20503;-53
2021/06/01 07:25:03;;;;;;;5.43;1.35;;;;;;;13.54;100.00;99936.38;4807064;29;20050;-52
2021/06/01 07:32:34;;;;;;;4.25;1.15;;;;;;;14.00;100.00;99932.72;4807567;29;20457;-53
2021/06/01 07:35:37;;;;;;;3.53;1.38;;;;;;;14.13;100.00;99925.44;4807181;29;20053;-53
2021/06/01 07:38:41;;;;;;;6.07;1.77;;;;;;;14.22;100.00;99916.06;4806731;29;20062;-53
2021/06/01 07:41:45;;;;;;;3.05;0.77;;;;;;;14.33;100.00;99919.75;4807176;29;20050;-53
2021/06/01 07:44:48;;;;;;;2.28;0.90;;;;;;;14.61;100.00;99917.09;4806740;29;20046;-53
2021/06/01 07:47:51;;;;;;;3.50;1.00;;;;;;;14.87;100.00;99914.16;4807119;29;20053;-53
2021/06/01 07:50:55;;;;;;;6.20;1.58;;;;;;;15.06;100.00;99921.63;4806138;29;20062;-53
2021/06/01 07:54:02;;;;;;;7.95;1.30;;;;;;;15.31;100.00;99914.28;4806964;29;20050;-53
2021/06/01 07:57:06;;;;;;;2.78;1.05;;;;;;;15.47;100.00;99913.59;4806826;29;20065;-53
2021/06/01 08:00:11;;;;;;;4.97;1.35;;;;;;;15.60;100.00;99913.09;4806819;29;20063;-53
2021/06/01 08:03:17;;;;;;;6.65;1.13;;;;;;;15.73;100.00;99913.38;4806369;29;20059;-53
2021/06/01 08:06:20;;;;;;;5.78;1.20;;;;;;;15.91;100.00;99916.47;4805866;29;20070;-53
2021/06/01 08:09:24;;;;;;;8.60;1.48;;;;;;;16.09;100.00;99906.72;4806674;29;20053;-54
2021/06/01 08:12:28;;;;;;;4.28;1.08;;;;;;;16.36;100.00;99903.13;4806621;29;20066;-53
2021/06/01 08:15:32;;;;;;;5.13;1.05;;;;;;;16.45;100.00;99900.03;4806169;29;20062;-53
2021/06/01 08:18:41;;;;;;;3.95;1.30;;;;;;;16.59;100.00;99899.00;4806451;29;20049;-53
2021/06/01 08:22:02;;;;;;;5.05;0.65;;;;;;;16.83;100.00;99889.97;4806480;29;20057;-53
2021/06/01 08:25:09;;;;;;;4.28;1.75;;;;;;;17.06;100.00;99896.25;4795359;29;20063;-53
2021/06/01 08:28:13;;;;;;;5.35;1.83;;;;;;;17.27;100.00;99894.59;4794951;29;20050;-53
2021/06/01 08:31:17;;;;;;;4.68;1.02;;;;;;;17.48;100.00;99889.38;4795379;29;20408;-53
2021/06/01 08:34:20;;;;;;;3.00;0.75;;;;;;;17.73;100.00;99885.38;4805831;29;20142;-53
2021/06/01 08:37:24;;;;;;;2.20;1.02;;;;;;;17.95;100.00;99885.19;4805650;29;20054;-53
2021/06/01 08:40:27;;;;;;;5.00;1.65;;;;;;;18.18;100.00;99889.31;4805963;29;20070;-53
2021/06/01 08:43:32;;;;;;;2.53;0.75;;;;;;;18.38;100.00;99886.03;4806421;29;20045;-53
2021/06/01 08:46:36;;;;;;;6.25;1.73;;;;;;;18.57;100.00;99883.28;4805800;29;20046;-53
2021/06/01 08:49:40;;;;;;;8.80;2.42;;;;;;;18.73;100.00;99876.72;4804953;29;20053;-53
2021/06/01 08:52:43;;;;;;;3.85;1.02;;;;;;;18.90;100.00;99880.09;4806030;29;20400;-53
2021/06/01 08:55:48;;;;;;;3.83;1.10;;;;;;;19.07;100.00;99880.63;4805307;29;20153;-53
2021/06/01 08:58:52;;;;;;;7.35;1.33;;;;;;;19.37;100.00;99881.25;4805465;29;20437;-53
2021/06/01 09:01:58;;;;;;;4.43;1.13;;;;;;;19.58;100.00;99885.03;4805294;29;20053;-53
2021/06/01 09:05:05;;;;;;;4.43;1.55;;;;;;;19.58;100.00;99884.25;4804880;29;20046;-52
2021/06/01 09:08:17;;;;;;;6.10;1.92;;;;;;;19.55;100.00;99891.78;4805842;29;20054;-53
2021/06/01 09:21:47;;;;;;;4.22;1.17;;;;;;;19.89;100.00;99877.09;4805603;29;20058;-53
2021/06/01 09:25:00;;;;;;;10.25;1.33;;;;;;;19.96;100.00;99873.63;4804390;29;20066;-53
2021/06/01 09:28:15;;;;;;;4.20;1.33;;;;;;;20.14;100.00;99870.00;4804996;29;20046;-53
2021/06/01 09:31:19;;;;;;;6.53;1.70;;;;;;;20.26;100.00;99868.50;4805076;29;20413;-54
2021/06/01 09:34:25;;;;;;;2.90;0.90;;;;;;;20.46;100.00;99865.03;4793886;29;20500;-54
2021/06/01 09:37:36;;;;;;;6.80;1.55;;;;;;;20.64;100.00;99858.50;4805203;29;20065;-53
2021/06/01 09:40:41;;;;;;;6.00;1.42;;;;;;;20.82;100.00;99857.59;4805174;29;20054;-54
2021/06/01 09:44:01;;;;;;;5.70;1.58;;;;;;;20.83;100.00;99864.81;4804572;29;20050;-53
2021/06/01 09:47:05;;;;;;;3.15;1.02;;;;;;;20.97;100.00;99863.47;4805394;29;20060;-53
2021/06/01 09:50:17;;;;;;;6.97;1.65;;;;;;;20.99;100.00;99860.06;4804877;29;20073;-53
2021/06/01 09:53:27;;;;;;;5.28;1.00;;;;;;;21.07;100.00;99861.72;4805193;29;20062;-53
2021/06/01 09:56:31;;;;;;;5.82;1.05;;;;;;;21.09;100.00;99861.19;4793856;29;20073;-54
2021/06/01 09:59:35;;;;;;;7.43;2.00;;;;;;;21.14;100.00;99855.38;4804502;29;20050;-54
2021/06/01 10:02:39;;;;;;;2.78;1.30;;;;;;;21.25;100.00;99851.53;4805091;29;20062;-54
2021/06/01 10:05:45;;;;;;;4.68;1.40;;;;;;;21.39;100.00;99853.03;4805151;29;20053;-53
2021/06/01 10:08:52;;;;;;;5.07;1.30;;;;;;;21.55;100.00;99859.63;4805172;29;20049;-52
2021/06/01 10:12:04;;;;;;;3.45;1.70;;;;;;;21.64;100.00;99859.13;4805026;29;20053;-53
2021/06/01 10:15:09;;;;;;;3.03;1.02;;;;;;;21.68;100.00;99862.38;4793960;29;20054;-53
2021/06/01 10:18:18;;;;;;;8.25;1.42;;;;;;;21.88;100.00;99855.97;4805158;29;20054;-52
2021/06/01 10:21:24;;;;;;;5.30;0.80;;;;;;;22.01;100.00;99861.56;4804199;29;20053;-53
2021/06/01 10:24:27;;;;;;;5.40;1.40;;;;;;;22.02;100.00;99863.09;4805115;29;20405;-53
2021/06/01 10:27:31;;;;;;;5.20;1.70;;;;;;;22.02;100.00;99851.75;4794060;29;20062;-53
2021/06/01 10:30:40;;;;;;;8.68;1.10;;;;;;;22.23;100.00;99854.56;4807944;29;20377;-53
2021/06/01 10:33:48;;;;;;;4.38;1.17;;;;;;;22.33;100.00;99862.00;4807857;29;20053;-53
2021/06/01 10:53:18;;;;;;;5.68;1.85;;;;;;;22.83;100.00;99843.59;4808309;29;20133;-54
2021/06/01 10:56:22;;;;;;;6.53;1.27;;;;;;;22.81;100.00;99834.09;4796570;29;20495;-53
2021/06/01 10:59:58;;;;;;;7.28;1.20;;;;;;;22.83;100.00;99837.13;4807744;29;20050;-53
2021/06/01 11:03:04;;;;;;;4.93;1.45;;;;;;;22.88;100.00;99839.06;4807724;29;20077;-53
2021/06/01 11:06:11;;;;;;;4.72;1.67;;;;;;;22.90;100.00;99842.09;4807568;29;20069;-54
2021/06/01 11:09:33;;;;;;;3.22;1.33;;;;;;;23.02;100.00;99831.94;4807311;29;20404;-55
2021/06/01 11:12:37;;;;;;;5.10;1.38;;;;;;;23.11;100.00;99829.31;4807741;29;20050;-54
2021/06/01 11:15:41;;;;;;;3.58;0.75;;;;;;;23.17;100.00;99837.66;4795972;29;20078;-52
2021/06/01 11:18:54;;;;;;;5.07;1.25;;;;;;;23.36;100.00;99832.44;4807511;29;20062;-54
2021/06/01 11:22:06;;;;;;;5.05;1.70;;;;;;;23.44;100.00;99833.22;4806780;29;20070;-52
2021/06/01 11:35:12;;;;;;;2.72;0.88;;;;;;;23.46;100.00;99830.56;4807149;29;20058;-53
2021/06/01 11:38:29;;;;;;;7.60;1.15;;;;;;;23.47;100.00;99826.41;4806942;29;20049;-53
2021/06/01 11:45:03;;;;;;;2.42;0.50;;;;;;;23.49;100.00;99835.13;4813084;29;20534;-53
2021/06/01 11:48:27;;;;;;;2.22;0.60;;;;;;;23.70;100.00;99821.50;4807079;29;20496;-54
2021/06/01 11:51:33;;;;;;;4.07;0.90;;;;;;;23.63;100.00;99818.66;4798542;29;20062;-53
2021/06/01 11:54:37;;;;;;;1.70;0.60;;;;;;;23.62;100.00;99809.38;4806429;29;20062;-53
2021/06/01 12:02:01;;;;;;;4.60;0.95;;;;;;;23.93;100.00;99816.56;4806793;29;20065;-53
2021/06/01 12:11:20;;;;;;;1.55;0.47;;;;;;;24.26;100.00;99808.97;4806620;29;20061;-53
2021/06/01 12:17:10;;;;;;;2.20;0.70;;;;;;;24.45;100.00;99797.19;4806419;29;20053;-53
2021/06/01 12:17:50;;;;;;;4.25;0.73;;;;;;;24.57;100.00;99796.19;4806421;29;20084;-53
2021/06/01 12:20:54;;;;;;;1.63;0.38;;;;;;;24.49;100.00;99794.69;4806371;29;20058;-53
2021/06/01 12:24:03;;;;;;;0.70;0.20;;;;;;;24.45;100.00;99797.19;4795060;29;20057;-53
2021/06/01 12:27:23;;;;;;;3.88;0.40;;;;;;;24.36;100.00;99797.75;4806333;29;20050;-53
2021/06/01 12:34:01;;;;;;;3.20;0.65;;;;;;;24.22;100.00;99791.53;4805942;29;20054;-47
2021/06/01 12:44:04;;;;;;;2.33;0.55;;;;;;;23.75;100.00;99783.59;4797304;29;20050;-47
2021/06/01 13:21:12;;;;;;;0.70;0.10;;;;;;;24.54;82.98;99766.00;4805219;29;20065;-47
2021/06/01 13:30:12;;;;;;;1.30;0.57;;;;;;;24.55;86.89;99749.66;4805236;29;20054;-47
2021/06/01 15:24:46;;;;;;;1.70;0.77;;;;;;;24.65;100.00;99687.91;4806421;29;20539;-46
2021/06/01 15:31:55;;;;;;;1.95;0.40;;;;;;;24.05;100.00;99683.22;4797890;29;20073;-46
2021/06/01 15:52:12;;;;;;;0.93;0.47;;;;;;;24.65;100.00;99673.66;4806606;29;20062;-46
2021/06/01 16:11:38;;;;;;;1.80;0.55;;;;;;;28.04;83.71;99654.50;4806749;29;20515;-47
2021/06/01 16:21:27;;;;;;;1.58;0.40;;;;;;;27.49;89.15;99637.38;4806372;29;20081;-47
2021/06/01 17:12:01;;;;;;;4.88;0.65;;;;;;;21.58;100.00;99631.78;4806083;29;20054;-46
2021/06/01 17:15:06;;;;;;;2.47;0.82;;;;;;;21.46;100.00;99636.22;4804136;29;20063;-46
2021/06/01 17:19:21;;;;;;;2.97;0.88;;;;;;;21.46;100.00;99627.72;4805089;29;20054;-46
2021/06/01 17:32:14;;;;;;;4.25;1.00;;;;;;;21.24;100.00;99631.16;4805376;29;20085;-53
2021/06/01 17:35:17;;;;;;;9.85;0.90;;;;;;;21.08;100.00;99625.38;4805050;29;20062;-53
2021/06/01 17:38:21;;;;;;;5.32;0.93;;;;;;;20.98;100.00;99638.47;4804837;29;20412;-53
2021/06/01 17:41:28;;;;;;;4.45;0.90;;;;;;;20.90;100.00;99631.97;4805156;29;20070;-53
2021/06/01 17:44:32;;;;;;;3.60;0.90;;;;;;;20.83;100.00;99631.91;4805162;29;20050;-53
2021/06/01 17:52:29;;;;;;;1.90;0.82;;;;;;;20.61;100.00;99632.44;4805770;29;20461;-54
2021/06/01 17:55:36;;;;;;;2.63;0.85;;;;;;;20.53;100.00;99626.69;4793758;29;20066;-54
2021/06/01 17:58:43;;;;;;;2.35;0.88;;;;;;;20.45;100.00;99625.88;4804879;29;20077;-54
2021/06/01 18:01:47;;;;;;;3.58;0.73;;;;;;;20.35;100.00;99624.81;4804988;29;20070;-53
2021/06/01 18:04:52;;;;;;;1.77;0.77;;;;;;;20.22;100.00;99630.50;4803736;29;20049;-54
2021/06/01 18:11:38;;;;;;;3.60;0.73;;;;;;;19.96;100.00;99630.53;4804694;29;20511;-53
2021/06/01 19:05:57;;;;;;;2.15;0.68;;;;;;;18.15;100.00;99634.63;4807567;29;20069;-53
2021/06/01 19:50:00;;;;;;;5.40;0.90;;;;;;;16.78;100.00;99645.31;4806855;29;20515;-52
2021/06/01 19:53:04;;;;;;;4.68;1.67;;;;;;;16.63;100.00;99649.22;4806518;29;20058;-53
2021/06/01 19:56:08;;;;;;;3.65;1.25;;;;;;;16.49;100.00;99644.72;4806066;29;20074;-52
2021/06/01 19:59:12;;;;;;;0.47;0.47;;;;;;;16.37;100.00;99654.50;4806741;29;20069;-52
2021/06/01 20:02:29;;;;;;;4.90;0.43;;;;;;;16.22;100.00;99662.50;4806445;29;20057;-52
2021/06/01 20:05:33;;;;;;;1.17;0.60;;;;;;;16.05;100.00;99653.38;4806703;29;20049;-53
2021/06/01 20:08:39;;;;;;;1.25;0.50;;;;;;;15.88;100.00;99658.31;4806295;29;20078;-52
2021/06/01 20:11:44;;;;;;;1.55;0.68;;;;;;;15.75;100.00;99658.13;4806690;29;20480;-45
2021/06/01 20:14:48;;;;;;;2.08;0.73;;;;;;;15.60;100.00;99657.66;4805907;29;20057;-45
2021/06/01 20:17:53;;;;;;;0.63;0.40;;;;;;;15.47;100.00;99660.25;4795349;29;20404;-45
2021/06/01 20:20:57;;;;;;;2.05;1.00;;;;;;;15.30;100.00;99653.88;4806447;29;20519;-45
2021/06/01 20:24:03;;;;;;;2.28;0.80;;;;;;;15.15;100.00;99671.75;4806320;29;20099;-45
2021/06/01 20:27:08;;;;;;;1.75;0.85;;;;;;;15.05;100.00;99672.53;4806463;29;20053;-45
2021/06/01 20:30:25;;;;;;;5.45;0.82;;;;;;;14.94;100.00;99669.72;4806224;29;20058;-45
2021/06/01 20:33:29;;;;;;;1.40;0.50;;;;;;;14.86;100.00;99668.69;4805891;29;20499;-45
2021/06/01 20:36:33;;;;;;;1.73;0.75;;;;;;;14.80;100.00;99677.09;4806494;29;20051;-45
2021/06/01 20:39:41;;;;;;;1.85;0.60;;;;;;;14.68;100.00;99683.97;4805938;29;20057;-45
2021/06/01 20:42:51;;;;;;;2.97;0.85;;;;;;;14.63;100.00;99684.72;4794957;29;20050;-45
2021/06/01 20:45:54;;;;;;;1.13;0.93;;;;;;;14.52;100.00;99684.72;4805590;29;20412;-45
2021/06/01 20:48:58;;;;;;;1.73;0.65;;;;;;;14.41;100.00;99695.91;4794879;29;20054;-45
2021/06/01 20:52:04;;;;;;;1.33;0.60;;;;;;;14.32;100.00;99693.31;4805601;29;20054;-45
2021/06/01 20:55:15;;;;;;;2.45;0.75;;;;;;;14.24;100.00;99693.03;4805825;29;20067;-45
2021/06/01 20:58:34;;;;;;;1.85;0.77;;;;;;;14.16;100.00;99705.22;4805843;29;20061;-45
2021/06/01 21:01:38;;;;;;;2.53;0.90;;;;;;;14.11;100.00;99705.94;4805653;29;20058;-45
2021/06/01 21:04:44;;;;;;;4.15;1.35;;;;;;;14.08;100.00;99712.56;4805674;29;20102;-45
2021/06/01 21:07:49;;;;;;;1.85;0.68;;;;;;;14.09;100.00;99712.06;4805827;29;20066;-45
2021/06/01 21:10:56;;;;;;;1.75;0.85;;;;;;;14.06;100.00;99720.69;4805539;29;20073;-45
2021/06/01 21:13:59;;;;;;;2.03;0.55;;;;;;;14.04;100.00;99720.44;4804946;29;20074;-45
2021/06/01 21:17:04;;;;;;;3.00;0.82;;;;;;;13.99;100.00;99726.78;4804958;29;20523;-45
2021/06/01 21:20:15;;;;;;;1.58;0.73;;;;;;;13.91;100.00;99728.50;4805508;29;20061;-45
2021/06/01 21:23:19;;;;;;;1.08;0.82;;;;;;;13.87;100.00;99727.97;4805297;29;20062;-44
2021/06/01 21:26:24;;;;;;;2.35;0.75;;;;;;;13.78;100.00;99728.19;4794187;29;20074;-44
2021/06/01 21:29:28;;;;;;;2.38;0.65;;;;;;;13.76;100.00;99736.31;4805265;29;20062;-45
2021/06/01 21:32:40;;;;;;;1.40;0.73;;;;;;;13.71;100.00;99739.88;4805205;29;20114;-45
2021/06/01 21:35:48;;;;;;;6.43;0.93;;;;;;;13.69;100.00;99732.72;4793857;29;20054;-44
2021/06/01 21:38:54;;;;;;;0.88;0.43;;;;;;;13.60;100.00;99730.13;4805063;29;20053;-45